West Miami, Florida
Current Conditions -  °F | °C
As of 4:53 PM on Monday 26 Jan 2015 (Local Time) from KMIA Reporting Station
Few Clouds Few Clouds  
Wind Chill: 72°   Ceiling: Unl
Heat Index: 72°   Visibility: 10mi
Dew Point: 46°   Wind: 13mph
Humidity: 40%   Direction: 280°W
Pressure: 29.88"   Gusts: 21mph
Location:  25.7365°N, 80.3112°W
Report Text: KMIA 262153Z 28011G18KT 10SM FEW050 22/08 A2988 RMK AO2 SLP119 T02220078
Loading
Personal Weather Stations






























Interactive Weather Map New forecast layout! Learn more

10-Day Weather Forecast

Advertisements
Track Severe Weather on mobile